sensor_id;sensor_type;location;lat;lon;timestamp;P1;durP1;ratioP1;P2;durP2;ratioP2
67195;SDS011;54122;53.538;49.366;2023-04-06T00:02:25;206.45;;;14.10;;
67195;SDS011;54122;53.538;49.366;2023-04-06T00:04:52;137.25;;;11.73;;
67195;SDS011;54122;53.538;49.366;2023-04-06T00:07:18;199.32;;;14.60;;
67195;SDS011;54122;53.538;49.366;2023-04-06T00:09:44;180.52;;;14.70;;
67195;SDS011;54122;53.538;49.366;2023-04-06T00:12:10;174.55;;;11.20;;
67195;SDS011;54122;53.538;49.366;2023-04-06T00:14:36;167.45;;;13.68;;
67195;SDS011;54122;53.538;49.366;2023-04-06T00:17:02;155.63;;;10.65;;
67195;SDS011;54122;53.538;49.366;2023-04-06T00:19:29;169.38;;;13.45;;
67195;SDS011;54122;53.538;49.366;2023-04-06T00:21:55;154.05;;;13.77;;
67195;SDS011;54122;53.538;49.366;2023-04-06T00:24:21;146.98;;;12.13;;
67195;SDS011;54122;53.538;49.366;2023-04-06T00:26:48;169.27;;;12.25;;
67195;SDS011;54122;53.538;49.366;2023-04-06T00:29:17;196.15;;;13.52;;
67195;SDS011;54122;53.538;49.366;2023-04-06T00:31:43;152.27;;;12.40;;
67195;SDS011;54122;53.538;49.366;2023-04-06T00:34:09;147.50;;;11.57;;
67195;SDS011;54122;53.538;49.366;2023-04-06T00:36:36;158.70;;;13.00;;
67195;SDS011;54122;53.538;49.366;2023-04-06T00:39:02;165.82;;;12.82;;
67195;SDS011;54122;53.538;49.366;2023-04-06T00:41:28;171.90;;;12.95;;
67195;SDS011;54122;53.538;49.366;2023-04-06T00:43:54;176.45;;;13.07;;
67195;SDS011;54122;53.538;49.366;2023-04-06T00:46:21;157.93;;;11.90;;
67195;SDS011;54122;53.538;49.366;2023-04-06T00:48:48;146.93;;;12.52;;
67195;SDS011;54122;53.538;49.366;2023-04-06T00:51:14;142.45;;;11.23;;
67195;SDS011;54122;53.538;49.366;2023-04-06T00:53:40;156.75;;;12.48;;
67195;SDS011;54122;53.538;49.366;2023-04-06T00:56:06;155.85;;;12.48;;
67195;SDS011;54122;53.538;49.366;2023-04-06T00:58:35;119.93;;;10.90;;
67195;SDS011;54122;53.538;49.366;2023-04-06T01:01:04;163.63;;;14.35;;
67195;SDS011;54122;53.538;49.366;2023-04-06T01:03:31;160.52;;;13.50;;
67195;SDS011;54122;53.538;49.366;2023-04-06T01:05:57;160.55;;;12.40;;
67195;SDS011;54122;53.538;49.366;2023-04-06T01:08:24;146.52;;;10.75;;
67195;SDS011;54122;53.538;49.366;2023-04-06T01:10:50;165.93;;;16.00;;
67195;SDS011;54122;53.538;49.366;2023-04-06T01:13:16;180.45;;;13.48;;
67195;SDS011;54122;53.538;49.366;2023-04-06T01:15:43;181.55;;;13.88;;
67195;SDS011;54122;53.538;49.366;2023-04-06T01:18:09;150.95;;;14.63;;
67195;SDS011;54122;53.538;49.366;2023-04-06T01:20:38;144.73;;;12.77;;
67195;SDS011;54122;53.538;49.366;2023-04-06T01:23:04;142.00;;;10.45;;
67195;SDS011;54122;53.538;49.366;2023-04-06T01:25:30;156.38;;;12.23;;
67195;SDS011;54122;53.538;49.366;2023-04-06T01:27:57;151.13;;;10.90;;
67195;SDS011;54122;53.538;49.366;2023-04-06T01:30:23;164.57;;;12.15;;
67195;SDS011;54122;53.538;49.366;2023-04-06T01:32:49;140.73;;;12.20;;
67195;SDS011;54122;53.538;49.366;2023-04-06T01:35:17;139.77;;;14.73;;
67195;SDS011;54122;53.538;49.366;2023-04-06T01:37:44;161.15;;;11.43;;
67195;SDS011;54122;53.538;49.366;2023-04-06T01:40:11;153.93;;;12.88;;
67195;SDS011;54122;53.538;49.366;2023-04-06T01:42:39;145.82;;;10.52;;
67195;SDS011;54122;53.538;49.366;2023-04-06T01:45:05;123.95;;;12.05;;
67195;SDS011;54122;53.538;49.366;2023-04-06T01:47:32;136.20;;;12.90;;
67195;SDS011;54122;53.538;49.366;2023-04-06T01:49:58;118.68;;;10.82;;
67195;SDS011;54122;53.538;49.366;2023-04-06T01:52:24;132.18;;;12.18;;
67195;SDS011;54122;53.538;49.366;2023-04-06T01:54:51;162.02;;;12.98;;
67195;SDS011;54122;53.538;49.366;2023-04-06T01:57:17;146.32;;;10.75;;
67195;SDS011;54122;53.538;49.366;2023-04-06T01:59:44;120.47;;;12.55;;
67195;SDS011;54122;53.538;49.366;2023-04-06T02:02:10;118.47;;;11.88;;
67195;SDS011;54122;53.538;49.366;2023-04-06T02:04:38;118.65;;;12.25;;
67195;SDS011;54122;53.538;49.366;2023-04-06T02:07:04;128.68;;;13.18;;
67195;SDS011;54122;53.538;49.366;2023-04-06T02:09:30;135.02;;;11.00;;
67195;SDS011;54122;53.538;49.366;2023-04-06T02:11:57;153.25;;;12.65;;
67195;SDS011;54122;53.538;49.366;2023-04-06T02:14:24;128.60;;;10.73;;
67195;SDS011;54122;53.538;49.366;2023-04-06T02:16:51;153.98;;;12.30;;
67195;SDS011;54122;53.538;49.366;2023-04-06T02:19:17;133.27;;;9.88;;
67195;SDS011;54122;53.538;49.366;2023-04-06T02:21:43;121.10;;;9.93;;
67195;SDS011;54122;53.538;49.366;2023-04-06T02:24:09;126.95;;;11.00;;
67195;SDS011;54122;53.538;49.366;2023-04-06T02:26:36;135.15;;;12.07;;
67195;SDS011;54122;53.538;49.366;2023-04-06T02:29:02;110.72;;;10.40;;
67195;SDS011;54122;53.538;49.366;2023-04-06T02:31:28;107.88;;;11.23;;
67195;SDS011;54122;53.538;49.366;2023-04-06T02:33:54;120.47;;;10.70;;
67195;SDS011;54122;53.538;49.366;2023-04-06T02:36:21;126.18;;;10.25;;
67195;SDS011;54122;53.538;49.366;2023-04-06T02:38:47;102.97;;;9.05;;
67195;SDS011;54122;53.538;49.366;2023-04-06T02:41:13;117.22;;;10.48;;
67195;SDS011;54122;53.538;49.366;2023-04-06T02:43:39;88.97;;;9.60;;
67195;SDS011;54122;53.538;49.366;2023-04-06T02:46:06;121.55;;;10.40;;
67195;SDS011;54122;53.538;49.366;2023-04-06T02:48:32;106.55;;;9.18;;
67195;SDS011;54122;53.538;49.366;2023-04-06T02:51:01;94.63;;;9.13;;
67195;SDS011;54122;53.538;49.366;2023-04-06T02:53:27;117.13;;;10.93;;
67195;SDS011;54122;53.538;49.366;2023-04-06T02:55:54;78.22;;;7.47;;
67195;SDS011;54122;53.538;49.366;2023-04-06T02:58:21;101.25;;;9.50;;
67195;SDS011;54122;53.538;49.366;2023-04-06T03:00:47;111.70;;;8.68;;
67195;SDS011;54122;53.538;49.366;2023-04-06T03:03:13;99.65;;;8.32;;
67195;SDS011;54122;53.538;49.366;2023-04-06T03:05:39;122.15;;;9.70;;
67195;SDS011;54122;53.538;49.366;2023-04-06T03:08:05;97.95;;;9.70;;
67195;SDS011;54122;53.538;49.366;2023-04-06T03:10:32;80.03;;;8.98;;
67195;SDS011;54122;53.538;49.366;2023-04-06T03:12:58;261.73;;;17.15;;
67195;SDS011;54122;53.538;49.366;2023-04-06T03:15:24;100.10;;;10.13;;
67195;SDS011;54122;53.538;49.366;2023-04-06T03:17:50;143.07;;;10.05;;
67195;SDS011;54122;53.538;49.366;2023-04-06T03:20:16;120.25;;;10.18;;
67195;SDS011;54122;53.538;49.366;2023-04-06T03:22:43;95.63;;;8.93;;
67195;SDS011;54122;53.538;49.366;2023-04-06T03:25:09;96.10;;;8.93;;
67195;SDS011;54122;53.538;49.366;2023-04-06T03:27:35;121.72;;;10.35;;
67195;SDS011;54122;53.538;49.366;2023-04-06T03:30:01;117.07;;;9.05;;
67195;SDS011;54122;53.538;49.366;2023-04-06T03:32:28;104.85;;;9.68;;
67195;SDS011;54122;53.538;49.366;2023-04-06T03:34:54;71.45;;;8.65;;
67195;SDS011;54122;53.538;49.366;2023-04-06T03:37:20;137.65;;;10.20;;
67195;SDS011;54122;53.538;49.366;2023-04-06T03:39:46;104.57;;;9.10;;
67195;SDS011;54122;53.538;49.366;2023-04-06T03:42:12;105.57;;;9.90;;
67195;SDS011;54122;53.538;49.366;2023-04-06T03:44:38;121.28;;;11.30;;
67195;SDS011;54122;53.538;49.366;2023-04-06T03:47:05;101.97;;;10.82;;
67195;SDS011;54122;53.538;49.366;2023-04-06T03:49:31;92.75;;;9.95;;
67195;SDS011;54122;53.538;49.366;2023-04-06T03:51:57;94.53;;;11.02;;
67195;SDS011;54122;53.538;49.366;2023-04-06T03:54:23;148.60;;;11.63;;
67195;SDS011;54122;53.538;49.366;2023-04-06T03:56:50;110.40;;;11.48;;
67195;SDS011;54122;53.538;49.366;2023-04-06T03:59:16;109.80;;;9.75;;
67195;SDS011;54122;53.538;49.366;2023-04-06T04:01:42;82.00;;;10.93;;
67195;SDS011;54122;53.538;49.366;2023-04-06T04:04:08;96.63;;;10.07;;
67195;SDS011;54122;53.538;49.366;2023-04-06T04:06:35;110.53;;;10.68;;
67195;SDS011;54122;53.538;49.366;2023-04-06T04:09:01;83.60;;;10.63;;
67195;SDS011;54122;53.538;49.366;2023-04-06T04:11:28;106.15;;;10.32;;
67195;SDS011;54122;53.538;49.366;2023-04-06T04:13:54;105.65;;;10.68;;
67195;SDS011;54122;53.538;49.366;2023-04-06T04:16:20;98.00;;;9.75;;
67195;SDS011;54122;53.538;49.366;2023-04-06T04:18:46;89.93;;;10.63;;
67195;SDS011;54122;53.538;49.366;2023-04-06T04:21:14;100.95;;;9.65;;
67195;SDS011;54122;53.538;49.366;2023-04-06T04:23:40;103.47;;;11.30;;
67195;SDS011;54122;53.538;49.366;2023-04-06T04:26:06;119.40;;;12.38;;
67195;SDS011;54122;53.538;49.366;2023-04-06T04:28:32;124.43;;;13.25;;
67195;SDS011;54122;53.538;49.366;2023-04-06T04:30:59;108.53;;;11.73;;
67195;SDS011;54122;53.538;49.366;2023-04-06T04:33:25;105.80;;;13.18;;
67195;SDS011;54122;53.538;49.366;2023-04-06T04:35:51;85.68;;;11.68;;
67195;SDS011;54122;53.538;49.366;2023-04-06T04:38:17;105.13;;;12.38;;
67195;SDS011;54122;53.538;49.366;2023-04-06T04:40:43;94.85;;;12.13;;
67195;SDS011;54122;53.538;49.366;2023-04-06T04:43:09;131.60;;;12.90;;
67195;SDS011;54122;53.538;49.366;2023-04-06T04:45:36;101.65;;;12.95;;
67195;SDS011;54122;53.538;49.366;2023-04-06T04:48:02;106.40;;;12.27;;
67195;SDS011;54122;53.538;49.366;2023-04-06T04:50:30;107.50;;;11.65;;
67195;SDS011;54122;53.538;49.366;2023-04-06T04:52:57;95.03;;;10.13;;
67195;SDS011;54122;53.538;49.366;2023-04-06T04:55:23;120.00;;;10.60;;
67195;SDS011;54122;53.538;49.366;2023-04-06T04:57:50;104.70;;;9.23;;
67195;SDS011;54122;53.538;49.366;2023-04-06T05:00:16;77.80;;;9.13;;
67195;SDS011;54122;53.538;49.366;2023-04-06T05:02:42;80.85;;;8.50;;
67195;SDS011;54122;53.538;49.366;2023-04-06T05:05:08;83.50;;;9.68;;
67195;SDS011;54122;53.538;49.366;2023-04-06T05:07:35;105.68;;;8.77;;
67195;SDS011;54122;53.538;49.366;2023-04-06T05:10:01;79.90;;;8.52;;
67195;SDS011;54122;53.538;49.366;2023-04-06T05:12:27;70.63;;;8.55;;
67195;SDS011;54122;53.538;49.366;2023-04-06T05:14:54;79.88;;;8.85;;
67195;SDS011;54122;53.538;49.366;2023-04-06T05:17:20;71.93;;;8.05;;
67195;SDS011;54122;53.538;49.366;2023-04-06T05:19:46;115.78;;;8.50;;
67195;SDS011;54122;53.538;49.366;2023-04-06T05:22:12;68.22;;;7.97;;
67195;SDS011;54122;53.538;49.366;2023-04-06T05:24:41;77.70;;;8.10;;
67195;SDS011;54122;53.538;49.366;2023-04-06T05:27:07;70.30;;;6.95;;
67195;SDS011;54122;53.538;49.366;2023-04-06T05:29:34;67.05;;;7.45;;
67195;SDS011;54122;53.538;49.366;2023-04-06T05:32:00;72.20;;;7.47;;
67195;SDS011;54122;53.538;49.366;2023-04-06T05:34:27;82.38;;;8.05;;
67195;SDS011;54122;53.538;49.366;2023-04-06T05:45:26;72.65;;;7.05;;
67195;SDS011;54122;53.538;49.366;2023-04-06T05:47:52;78.63;;;7.55;;
67195;SDS011;54122;53.538;49.366;2023-04-06T05:50:18;80.45;;;6.63;;
67195;SDS011;54122;53.538;49.366;2023-04-06T05:52:45;64.47;;;7.97;;
67195;SDS011;54122;53.538;49.366;2023-04-06T05:55:29;71.40;;;7.72;;
67195;SDS011;54122;53.538;49.366;2023-04-06T05:57:56;94.35;;;6.72;;
67195;SDS011;54122;53.538;49.366;2023-04-06T06:00:22;67.32;;;6.38;;
67195;SDS011;54122;53.538;49.366;2023-04-06T06:02:48;61.90;;;6.30;;
67195;SDS011;54122;53.538;49.366;2023-04-06T06:05:14;66.00;;;6.78;;
67195;SDS011;54122;53.538;49.366;2023-04-06T06:10:44;65.65;;;6.03;;
67195;SDS011;54122;53.538;49.366;2023-04-06T06:16:14;55.88;;;6.00;;
67195;SDS011;54122;53.538;49.366;2023-04-06T06:18:40;49.55;;;5.80;;
67195;SDS011;54122;53.538;49.366;2023-04-06T06:21:06;70.47;;;6.60;;
67195;SDS011;54122;53.538;49.366;2023-04-06T06:23:33;63.67;;;6.07;;
67195;SDS011;54122;53.538;49.366;2023-04-06T06:31:31;41.65;;;5.13;;
67195;SDS011;54122;53.538;49.366;2023-04-06T06:33:57;62.15;;;6.60;;
67195;SDS011;54122;53.538;49.366;2023-04-06T06:36:23;97.90;;;7.55;;
67195;SDS011;54122;53.538;49.366;2023-04-06T06:38:51;62.30;;;6.60;;
67195;SDS011;54122;53.538;49.366;2023-04-06T06:41:17;77.13;;;6.70;;
67195;SDS011;54122;53.538;49.366;2023-04-06T06:44:01;50.90;;;5.90;;
67195;SDS011;54122;53.538;49.366;2023-04-06T06:46:28;59.28;;;6.38;;
67195;SDS011;54122;53.538;49.366;2023-04-06T06:48:54;65.97;;;6.78;;
67195;SDS011;54122;53.538;49.366;2023-04-06T06:51:20;66.00;;;6.70;;
67195;SDS011;54122;53.538;49.366;2023-04-06T06:53:47;62.60;;;6.68;;
67195;SDS011;54122;53.538;49.366;2023-04-06T07:02:21;55.63;;;5.95;;
67195;SDS011;54122;53.538;49.366;2023-04-06T07:04:47;48.65;;;5.82;;
67195;SDS011;54122;53.538;49.366;2023-04-06T07:07:32;73.63;;;7.20;;
67195;SDS011;54122;53.538;49.366;2023-04-06T07:09:59;79.38;;;5.97;;
67195;SDS011;54122;53.538;49.366;2023-04-06T07:12:44;55.65;;;6.57;;
67195;SDS011;54122;53.538;49.366;2023-04-06T07:15:11;52.33;;;5.72;;
67195;SDS011;54122;53.538;49.366;2023-04-06T07:17:37;51.75;;;5.95;;
67195;SDS011;54122;53.538;49.366;2023-04-06T07:20:04;51.97;;;5.75;;
67195;SDS011;54122;53.538;49.366;2023-04-06T07:22:31;47.88;;;6.03;;
67195;SDS011;54122;53.538;49.366;2023-04-06T07:24:57;65.47;;;6.07;;
67195;SDS011;54122;53.538;49.366;2023-04-06T07:27:23;90.47;;;7.35;;
67195;SDS011;54122;53.538;49.366;2023-04-06T07:32:53;36.10;;;4.95;;
67195;SDS011;54122;53.538;49.366;2023-04-06T07:35:38;82.00;;;7.85;;
67195;SDS011;54122;53.538;49.366;2023-04-06T07:38:04;37.00;;;4.57;;
67195;SDS011;54122;53.538;49.366;2023-04-06T07:40:49;53.80;;;5.32;;
67195;SDS011;54122;53.538;49.366;2023-04-06T07:43:16;51.58;;;5.20;;
67195;SDS011;54122;53.538;49.366;2023-04-06T07:46:01;53.08;;;5.57;;
67195;SDS011;54122;53.538;49.366;2023-04-06T07:49:04;63.45;;;5.90;;
67195;SDS011;54122;53.538;49.366;2023-04-06T07:51:49;48.85;;;5.65;;
67195;SDS011;54122;53.538;49.366;2023-04-06T07:54:15;47.95;;;5.50;;
67195;SDS011;54122;53.538;49.366;2023-04-06T07:59:27;57.22;;;5.40;;
67195;SDS011;54122;53.538;49.366;2023-04-06T08:02:12;45.30;;;4.90;;
67195;SDS011;54122;53.538;49.366;2023-04-06T08:04:38;101.82;;;6.35;;
67195;SDS011;54122;53.538;49.366;2023-04-06T08:07:05;45.85;;;5.68;;
67195;SDS011;54122;53.538;49.366;2023-04-06T08:09:32;33.80;;;4.65;;
67195;SDS011;54122;53.538;49.366;2023-04-06T08:12:17;53.70;;;5.43;;
67195;SDS011;54122;53.538;49.366;2023-04-06T08:14:43;90.60;;;6.45;;
67195;SDS011;54122;53.538;49.366;2023-04-06T08:17:10;50.13;;;4.65;;
67195;SDS011;54122;53.538;49.366;2023-04-06T08:19:37;51.92;;;5.32;;
67195;SDS011;54122;53.538;49.366;2023-04-06T08:22:22;41.70;;;4.70;;
67195;SDS011;54122;53.538;49.366;2023-04-06T08:28:11;59.92;;;4.68;;
67195;SDS011;54122;53.538;49.366;2023-04-06T08:30:55;53.17;;;4.75;;
67195;SDS011;54122;53.538;49.366;2023-04-06T08:33:22;55.00;;;4.75;;
67195;SDS011;54122;53.538;49.366;2023-04-06T08:36:10;38.20;;;4.53;;
67195;SDS011;54122;53.538;49.366;2023-04-06T08:41:42;30.67;;;3.67;;
67195;SDS011;54122;53.538;49.366;2023-04-06T08:46:55;41.47;;;4.20;;
67195;SDS011;54122;53.538;49.366;2023-04-06T08:49:23;31.42;;;4.03;;
67195;SDS011;54122;53.538;49.366;2023-04-06T08:54:36;26.35;;;3.67;;
67195;SDS011;54122;53.538;49.366;2023-04-06T08:57:04;40.72;;;3.97;;
67195;SDS011;54122;53.538;49.366;2023-04-06T08:59:49;51.85;;;5.18;;
67195;SDS011;54122;53.538;49.366;2023-04-06T09:02:17;33.90;;;4.97;;
67195;SDS011;54122;53.538;49.366;2023-04-06T09:04:48;39.67;;;4.40;;
67195;SDS011;54122;53.538;49.366;2023-04-06T09:07:33;32.10;;;4.25;;
67195;SDS011;54122;53.538;49.366;2023-04-06T09:10:19;54.35;;;5.15;;
67195;SDS011;54122;53.538;49.366;2023-04-06T09:12:46;49.38;;;4.85;;
67195;SDS011;54122;53.538;49.366;2023-04-06T09:16:03;39.53;;;5.38;;
67195;SDS011;54122;53.538;49.366;2023-04-06T09:18:32;55.97;;;5.05;;
67195;SDS011;54122;53.538;49.366;2023-04-06T09:21:03;39.85;;;5.68;;
67195;SDS011;54122;53.538;49.366;2023-04-06T09:23:31;32.10;;;5.63;;
67195;SDS011;54122;53.538;49.366;2023-04-06T09:26:05;35.85;;;5.13;;
67195;SDS011;54122;53.538;49.366;2023-04-06T09:28:58;70.07;;;6.43;;
67195;SDS011;54122;53.538;49.366;2023-04-06T09:31:27;48.78;;;4.95;;
67195;SDS011;54122;53.538;49.366;2023-04-06T09:34:31;62.50;;;4.32;;
67195;SDS011;54122;53.538;49.366;2023-04-06T09:39:45;81.40;;;5.95;;
67195;SDS011;54122;53.538;49.366;2023-04-06T09:42:23;31.48;;;4.55;;
67195;SDS011;54122;53.538;49.366;2023-04-06T09:45:08;28.88;;;3.95;;
67195;SDS011;54122;53.538;49.366;2023-04-06T09:47:53;43.15;;;4.82;;
67195;SDS011;54122;53.538;49.366;2023-04-06T09:50:38;61.10;;;10.48;;
67195;SDS011;54122;53.538;49.366;2023-04-06T09:53:24;78.18;;;21.08;;
67195;SDS011;54122;53.538;49.366;2023-04-06T09:55:55;57.30;;;7.68;;
67195;SDS011;54122;53.538;49.366;2023-04-06T09:58:42;40.13;;;5.82;;
67195;SDS011;54122;53.538;49.366;2023-04-06T10:01:12;71.70;;;5.10;;
67195;SDS011;54122;53.538;49.366;2023-04-06T10:04:06;30.63;;;3.85;;
67195;SDS011;54122;53.538;49.366;2023-04-06T10:06:59;63.50;;;5.57;;
67195;SDS011;54122;53.538;49.366;2023-04-06T10:12:32;33.67;;;4.32;;
67195;SDS011;54122;53.538;49.366;2023-04-06T10:15:36;38.15;;;4.22;;
67195;SDS011;54122;53.538;49.366;2023-04-06T10:21:11;41.03;;;4.47;;
67195;SDS011;54122;53.538;49.366;2023-04-06T10:23:52;46.03;;;4.95;;
67195;SDS011;54122;53.538;49.366;2023-04-06T10:29:08;44.60;;;4.07;;
67195;SDS011;54122;53.538;49.366;2023-04-06T10:31:39;57.95;;;4.13;;
67195;SDS011;54122;53.538;49.366;2023-04-06T10:34:08;35.35;;;3.72;;
67195;SDS011;54122;53.538;49.366;2023-04-06T10:39:46;76.07;;;5.18;;
67195;SDS011;54122;53.538;49.366;2023-04-06T10:42:13;38.45;;;3.35;;
67195;SDS011;54122;53.538;49.366;2023-04-06T10:44:44;34.88;;;3.70;;
67195;SDS011;54122;53.538;49.366;2023-04-06T10:47:17;31.50;;;4.55;;
67195;SDS011;54122;53.538;49.366;2023-04-06T10:50:02;51.30;;;4.80;;
67195;SDS011;54122;53.538;49.366;2023-04-06T10:52:29;31.67;;;3.35;;
67195;SDS011;54122;53.538;49.366;2023-04-06T10:54:56;31.98;;;4.32;;
67195;SDS011;54122;53.538;49.366;2023-04-06T11:00:27;31.75;;;3.58;;
67195;SDS011;54122;53.538;49.366;2023-04-06T11:06:08;28.10;;;3.67;;
67195;SDS011;54122;53.538;49.366;2023-04-06T11:08:35;22.75;;;3.88;;
67195;SDS011;54122;53.538;49.366;2023-04-06T11:11:10;60.20;;;4.93;;
67195;SDS011;54122;53.538;49.366;2023-04-06T11:18:55;39.58;;;4.03;;
67195;SDS011;54122;53.538;49.366;2023-04-06T11:24:27;27.70;;;3.15;;
67195;SDS011;54122;53.538;49.366;2023-04-06T11:27:15;29.42;;;2.97;;
67195;SDS011;54122;53.538;49.366;2023-04-06T11:29:46;19.47;;;3.57;;
67195;SDS011;54122;53.538;49.366;2023-04-06T11:32:19;23.65;;;3.13;;
67195;SDS011;54122;53.538;49.366;2023-04-06T11:37:50;54.65;;;4.30;;
67195;SDS011;54122;53.538;49.366;2023-04-06T11:40:21;12.25;;;2.40;;
67195;SDS011;54122;53.538;49.366;2023-04-06T11:43:06;19.75;;;2.60;;
67195;SDS011;54122;53.538;49.366;2023-04-06T11:46:02;20.08;;;2.38;;
67195;SDS011;54122;53.538;49.366;2023-04-06T11:48:48;28.25;;;3.28;;
67195;SDS011;54122;53.538;49.366;2023-04-06T11:51:35;14.52;;;2.58;;
67195;SDS011;54122;53.538;49.366;2023-04-06T11:54:03;34.90;;;3.30;;
67195;SDS011;54122;53.538;49.366;2023-04-06T11:56:50;27.67;;;3.28;;
67195;SDS011;54122;53.538;49.366;2023-04-06T11:59:17;18.48;;;2.45;;
67195;SDS011;54122;53.538;49.366;2023-04-06T12:04:30;26.05;;;3.45;;
67195;SDS011;54122;53.538;49.366;2023-04-06T12:07:18;23.60;;;2.40;;
67195;SDS011;54122;53.538;49.366;2023-04-06T12:12:47;30.00;;;3.60;;
67195;SDS011;54122;53.538;49.366;2023-04-06T12:18:37;16.52;;;2.30;;
67195;SDS011;54122;53.538;49.366;2023-04-06T12:21:03;27.08;;;2.67;;
67195;SDS011;54122;53.538;49.366;2023-04-06T12:23:48;21.40;;;3.65;;
67195;SDS011;54122;53.538;49.366;2023-04-06T12:26:34;29.52;;;3.67;;
67195;SDS011;54122;53.538;49.366;2023-04-06T12:29:01;38.92;;;3.55;;
67195;SDS011;54122;53.538;49.366;2023-04-06T12:34:00;19.20;;;2.90;;
67195;SDS011;54122;53.538;49.366;2023-04-06T12:36:28;20.45;;;3.22;;
67195;SDS011;54122;53.538;49.366;2023-04-06T12:41:58;45.47;;;3.63;;
67195;SDS011;54122;53.538;49.366;2023-04-06T12:44:26;25.52;;;2.78;;
67195;SDS011;54122;53.538;49.366;2023-04-06T12:46:52;40.55;;;3.78;;
67195;SDS011;54122;53.538;49.366;2023-04-06T12:49:19;33.83;;;3.00;;
67195;SDS011;54122;53.538;49.366;2023-04-06T12:51:45;36.20;;;3.13;;
67195;SDS011;54122;53.538;49.366;2023-04-06T12:54:12;26.50;;;2.75;;
67195;SDS011;54122;53.538;49.366;2023-04-06T12:56:57;24.55;;;2.92;;
67195;SDS011;54122;53.538;49.366;2023-04-06T13:04:56;35.65;;;4.00;;
67195;SDS011;54122;53.538;49.366;2023-04-06T13:07:22;27.00;;;3.05;;
67195;SDS011;54122;53.538;49.366;2023-04-06T13:12:53;24.20;;;2.60;;
67195;SDS011;54122;53.538;49.366;2023-04-06T13:16:15;19.15;;;2.72;;
67195;SDS011;54122;53.538;49.366;2023-04-06T13:19:00;57.85;;;3.55;;
67195;SDS011;54122;53.538;49.366;2023-04-06T13:21:46;15.23;;;2.55;;
67195;SDS011;54122;53.538;49.366;2023-04-06T13:24:12;23.02;;;2.97;;
67195;SDS011;54122;53.538;49.366;2023-04-06T13:26:39;25.83;;;2.47;;
67195;SDS011;54122;53.538;49.366;2023-04-06T13:29:24;28.13;;;2.92;;
67195;SDS011;54122;53.538;49.366;2023-04-06T13:31:51;12.82;;;2.60;;
67195;SDS011;54122;53.538;49.366;2023-04-06T13:34:18;36.17;;;3.47;;
67195;SDS011;54122;53.538;49.366;2023-04-06T13:37:03;25.42;;;2.42;;
67195;SDS011;54122;53.538;49.366;2023-04-06T13:39:30;24.38;;;3.42;;
67195;SDS011;54122;53.538;49.366;2023-04-06T13:41:57;10.60;;;2.05;;
67195;SDS011;54122;53.538;49.366;2023-04-06T13:44:42;19.48;;;2.58;;
67195;SDS011;54122;53.538;49.366;2023-04-06T13:49:53;22.15;;;2.42;;
67195;SDS011;54122;53.538;49.366;2023-04-06T13:52:38;26.00;;;2.88;;
67195;SDS011;54122;53.538;49.366;2023-04-06T13:55:05;22.40;;;2.60;;
67195;SDS011;54122;53.538;49.366;2023-04-06T13:57:50;20.83;;;2.63;;
67195;SDS011;54122;53.538;49.366;2023-04-06T14:03:21;25.27;;;2.58;;
67195;SDS011;54122;53.538;49.366;2023-04-06T14:05:48;17.30;;;2.55;;
67195;SDS011;54122;53.538;49.366;2023-04-06T14:10:59;31.45;;;2.63;;
67195;SDS011;54122;53.538;49.366;2023-04-06T14:13:26;22.88;;;2.55;;
67195;SDS011;54122;53.538;49.366;2023-04-06T14:15:53;20.55;;;2.75;;
67195;SDS011;54122;53.538;49.366;2023-04-06T14:18:38;14.23;;;2.20;;
67195;SDS011;54122;53.538;49.366;2023-04-06T14:21:05;17.60;;;3.45;;
67195;SDS011;54122;53.538;49.366;2023-04-06T14:23:32;26.15;;;2.13;;
67195;SDS011;54122;53.538;49.366;2023-04-06T14:26:16;17.80;;;2.47;;
67195;SDS011;54122;53.538;49.366;2023-04-06T14:28:44;16.70;;;1.80;;
67195;SDS011;54122;53.538;49.366;2023-04-06T14:31:12;15.35;;;2.00;;
67195;SDS011;54122;53.538;49.366;2023-04-06T14:33:40;16.55;;;2.22;;
67195;SDS011;54122;53.538;49.366;2023-04-06T14:36:07;21.10;;;2.30;;
67195;SDS011;54122;53.538;49.366;2023-04-06T14:38:34;26.95;;;2.72;;
67195;SDS011;54122;53.538;49.366;2023-04-06T14:41:20;9.15;;;1.85;;
67195;SDS011;54122;53.538;49.366;2023-04-06T14:43:48;31.85;;;2.72;;
67195;SDS011;54122;53.538;49.366;2023-04-06T14:46:37;8.20;;;2.00;;
67195;SDS011;54122;53.538;49.366;2023-04-06T14:49:04;11.27;;;2.20;;
67195;SDS011;54122;53.538;49.366;2023-04-06T14:51:48;20.27;;;1.98;;
67195;SDS011;54122;53.538;49.366;2023-04-06T14:54:33;19.08;;;2.17;;
67195;SDS011;54122;53.538;49.366;2023-04-06T14:57:00;15.52;;;2.63;;
67195;SDS011;54122;53.538;49.366;2023-04-06T14:59:45;10.48;;;1.63;;
67195;SDS011;54122;53.538;49.366;2023-04-06T15:02:11;13.35;;;1.80;;
67195;SDS011;54122;53.538;49.366;2023-04-06T15:04:38;5.85;;;1.60;;
67195;SDS011;54122;53.538;49.366;2023-04-06T15:07:05;17.33;;;1.75;;
67195;SDS011;54122;53.538;49.366;2023-04-06T15:09:32;31.05;;;2.40;;
67195;SDS011;54122;53.538;49.366;2023-04-06T15:11:58;10.48;;;1.55;;
67195;SDS011;54122;53.538;49.366;2023-04-06T15:14:25;13.98;;;1.45;;
67195;SDS011;54122;53.538;49.366;2023-04-06T15:19:37;8.05;;;1.83;;
67195;SDS011;54122;53.538;49.366;2023-04-06T15:22:04;23.23;;;2.63;;
67195;SDS011;54122;53.538;49.366;2023-04-06T15:24:30;12.18;;;1.95;;
67195;SDS011;54122;53.538;49.366;2023-04-06T15:26:56;9.85;;;1.70;;
67195;SDS011;54122;53.538;49.366;2023-04-06T15:29:23;11.95;;;2.22;;
67195;SDS011;54122;53.538;49.366;2023-04-06T15:32:08;9.80;;;1.85;;
67195;SDS011;54122;53.538;49.366;2023-04-06T15:34:53;15.80;;;1.58;;
67195;SDS011;54122;53.538;49.366;2023-04-06T15:37:21;6.88;;;2.08;;
67195;SDS011;54122;53.538;49.366;2023-04-06T15:39:47;12.88;;;2.42;;
67195;SDS011;54122;53.538;49.366;2023-04-06T15:42:14;25.88;;;3.08;;
67195;SDS011;54122;53.538;49.366;2023-04-06T15:44:41;9.68;;;2.25;;
67195;SDS011;54122;53.538;49.366;2023-04-06T15:47:26;18.00;;;2.75;;
67195;SDS011;54122;53.538;49.366;2023-04-06T15:50:11;17.48;;;2.83;;
67195;SDS011;54122;53.538;49.366;2023-04-06T15:55:42;22.73;;;2.88;;
67195;SDS011;54122;53.538;49.366;2023-04-06T15:58:08;14.75;;;2.75;;
67195;SDS011;54122;53.538;49.366;2023-04-06T16:00:35;14.23;;;2.95;;
67195;SDS011;54122;53.538;49.366;2023-04-06T16:03:01;9.32;;;2.60;;
67195;SDS011;54122;53.538;49.366;2023-04-06T16:05:46;19.85;;;2.90;;
67195;SDS011;54122;53.538;49.366;2023-04-06T16:08:32;12.35;;;2.58;;
67195;SDS011;54122;53.538;49.366;2023-04-06T16:10:58;11.60;;;3.03;;
67195;SDS011;54122;53.538;49.366;2023-04-06T16:13:25;5.57;;;2.33;;
67195;SDS011;54122;53.538;49.366;2023-04-06T16:15:51;13.80;;;2.40;;
67195;SDS011;54122;53.538;49.366;2023-04-06T16:18:36;7.18;;;2.00;;
67195;SDS011;54122;53.538;49.366;2023-04-06T16:21:02;18.08;;;2.58;;
67195;SDS011;54122;53.538;49.366;2023-04-06T16:23:30;15.43;;;2.17;;
67195;SDS011;54122;53.538;49.366;2023-04-06T16:25:56;6.50;;;2.15;;
67195;SDS011;54122;53.538;49.366;2023-04-06T16:28:23;16.45;;;1.67;;